Red Diamond — A8UM9 — position and weather

sailwx.info

Track history (hours):
 
Tides and Currents Weather Stations Pressure Air Temp Water Temp Dewpoint Dewpoint Depression Visibility Wind Speed Wind Dir Waves Ship Positions

Red Diamond

Last reported at 2014-Nov-27 06:29 UTC. Time now 2014-Nov-28 07:03 UTC.
Position N 29°20' W 094°33'.

Length 190 m; draft 7.9 m.

Type: Cargo ship. MMSI: 636014524.

Date/timePositionNaut miles runAvg speedWind from/ knotsBaromVisibWave heightAir tempDewpointWater temp
2014-Nov-27 06:29N 29°20' W 094°33'0 0.0
2014-Nov-27 05:32N 29°20' W 094°33'0 0.0
2014-Nov-27 04:26N 29°20' W 094°33'1 0.1
2014-Nov-26 13:27N 29°20' W 094°32'236 7.4
2014-Nov-25 05:30N 29°45' W 090°01'1110.6
2014-Nov-25 04:26N 29°55' W 089°55'8 8.8
2014-Nov-25 03:32N 29°55' W 090°04'2 0.1
2014-Nov-24 02:31N 29°57' W 090°03'38711.4
2014-Nov-22 16:25N 27°37' W 083°12'1415.0
2014-Nov-22 15:31N 27°37' W 082°56'1212.8
2014-Nov-22 14:34N 27°36' W 082°42'1313.0
2014-Nov-22 13:33N 27°45' W 082°31'1110.5
2014-Nov-22 12:33N 27°54' W 082°26'1 0.7
2014-Nov-22 11:31N 27°55' W 082°26'0 0.0
2014-Nov-22 10:31N 27°55' W 082°26'0 0.0
2014-Nov-22 09:31N 27°55' W 082°26'0 0.0
2014-Nov-22 08:31N 27°55' W 082°26'0 0.0
2014-Nov-22 07:28N 27°55' W 082°26'0 0.0
2014-Nov-22 06:31N 27°55' W 082°26'0 0.0
2014-Nov-22 05:28N 27°55' W 082°26'0 0.0
2014-Nov-22 04:31N 27°55' W 082°26'0 0.0
2014-Nov-22 03:31N 27°55' W 082°26'0 0.0
2014-Nov-22 02:31N 27°55' W 082°26'0 0.0
2014-Nov-22 01:31N 27°55' W 082°26'0 0.0
2014-Nov-22 00:31N 27°55' W 082°26'0 0.0
2014-Nov-21 23:31N 27°55' W 082°26'0 0.0
2014-Nov-21 22:31N 27°55' W 082°26'2 1.7
2014-Nov-21 21:33N 27°54' W 082°26'8 8.0
2014-Nov-21 20:34N 27°47' W 082°31'1211.8
2014-Nov-21 19:33N 27°37' W 082°39'1111.1
2014-Nov-21 18:33N 27°36' W 082°51'6 5.5
2014-Nov-21 17:33N 27°39' W 082°57'2 2.2
2014-Nov-21 16:33N 27°37' W 082°59'5 5.0
2014-Nov-21 15:33N 27°33' W 083°02'1212.1
2014-Nov-21 14:33N 27°21' W 083°03'201 6.7
2014-Nov-20 08:33N 25°43' W 079°46'1211.8
2014-Nov-20 07:33N 25°55' W 079°45'1211.9
2014-Nov-20 06:33N 26°06' W 079°43'1212.0
2014-Nov-20 05:33N 26°18' W 079°42'1211.8
2014-Nov-20 04:33N 26°30' W 079°41'1211.7
2014-Nov-20 03:32N 26°42' W 079°40'33111.0
2014-Nov-18 21:33N 32°05' W 081°05'2 1.2
2014-Nov-18 20:13N 32°06' W 081°06'0 0.0
2014-Nov-18 19:31N 32°06' W 081°06'0 0.0
2014-Nov-18 18:32N 32°06' W 081°06'0 0.0
2014-Nov-18 17:31N 32°06' W 081°06'0 0.0
2014-Nov-18 16:28N 32°06' W 081°06'0 0.0
2014-Nov-18 15:32N 32°06' W 081°06'0 0.0
2014-Nov-18 14:32N 32°06' W 081°06'0 0.0
2014-Nov-18 13:32N 32°06' W 081°06'0 0.0
2014-Nov-18 12:32N 32°06' W 081°06'0 0.0
2014-Nov-18 11:31N 32°06' W 081°06'0 0.0
2014-Nov-18 10:28N 32°06' W 081°06'0 0.0
2014-Nov-18 09:31N 32°06' W 081°06'0 0.0
2014-Nov-18 08:29N 32°06' W 081°06'0 0.0
2014-Nov-18 07:31N 32°06' W 081°06'0 0.0
2014-Nov-18 06:32N 32°06' W 081°06'0 0.0
2014-Nov-18 05:32N 32°06' W 081°06'0 0.0
2014-Nov-18 04:32N 32°06' W 081°06'0 0.0
2014-Nov-18 03:31N 32°06' W 081°06'0 0.0
2014-Nov-18 02:32N 32°06' W 081°06'0 0.0
2014-Nov-18 01:32N 32°06' W 081°06'0 0.0
2014-Nov-18 00:31N 32°06' W 081°06'0 0.0
2014-Nov-17 23:32N 32°06' W 081°06'0 0.0
2014-Nov-17 22:28N 32°06' W 081°06'0 0.0
2014-Nov-17 21:32N 32°06' W 081°06'0 0.0
2014-Nov-17 20:32N 32°06' W 081°06'0 0.0
2014-Nov-17 19:04N 32°06' W 081°06'0 0.0
2014-Nov-17 18:31N 32°06' W 081°06'0 0.0
2014-Nov-17 17:31N 32°06' W 081°06'0 0.0
2014-Nov-17 16:28N 32°06' W 081°06'0 0.0
2014-Nov-17 15:31N 32°06' W 081°06'0 0.0
2014-Nov-17 14:32N 32°06' W 081°06'0 0.0
2014-Nov-17 13:32N 32°06' W 081°06'0 0.0
2014-Nov-17 12:29N 32°06' W 081°06'2 2.4
2014-Nov-17 11:34N 32°05' W 081°04'  
Track history (hours):
 
Tides and Currents Weather Stations Pressure Air Temp Water Temp Dewpoint Dewpoint Depression Visibility Wind Speed Wind Dir Waves Ship Positions

Red Diamond

Last reported at 2014-Nov-27 06:29 UTC. Time now 2014-Nov-28 07:03 UTC.
Position N 29°20' W 094°33'.

Length 190 m; draft 7.9 m.

Type: Cargo ship. MMSI: 636014524.

Date/timePositionNaut miles runAvg speedWind from/ knotsBaromVisibWave heightAir tempDewpointWater temp
2014-Nov-27 06:29N 29°20' W 094°33'0 0.0
2014-Nov-27 05:32N 29°20' W 094°33'0 0.0
2014-Nov-27 04:26N 29°20' W 094°33'1 0.1
2014-Nov-26 13:27N 29°20' W 094°32'236 7.4
2014-Nov-25 05:30N 29°45' W 090°01'1110.6
2014-Nov-25 04:26N 29°55' W 089°55'8 8.8
2014-Nov-25 03:32N 29°55' W 090°04'2 0.1
2014-Nov-24 02:31N 29°57' W 090°03'38711.4
2014-Nov-22 16:25N 27°37' W 083°12'1415.0
2014-Nov-22 15:31N 27°37' W 082°56'1212.8
2014-Nov-22 14:34N 27°36' W 082°42'1313.0
2014-Nov-22 13:33N 27°45' W 082°31'1110.5
2014-Nov-22 12:33N 27°54' W 082°26'1 0.7
2014-Nov-22 11:31N 27°55' W 082°26'0 0.0
2014-Nov-22 10:31N 27°55' W 082°26'0 0.0
2014-Nov-22 09:31N 27°55' W 082°26'0 0.0
2014-Nov-22 08:31N 27°55' W 082°26'0 0.0
2014-Nov-22 07:28N 27°55' W 082°26'0 0.0
2014-Nov-22 06:31N 27°55' W 082°26'0 0.0
2014-Nov-22 05:28N 27°55' W 082°26'0 0.0
2014-Nov-22 04:31N 27°55' W 082°26'0 0.0
2014-Nov-22 03:31N 27°55' W 082°26'0 0.0
2014-Nov-22 02:31N 27°55' W 082°26'0 0.0
2014-Nov-22 01:31N 27°55' W 082°26'0 0.0
2014-Nov-22 00:31N 27°55' W 082°26'0 0.0
2014-Nov-21 23:31N 27°55' W 082°26'0 0.0
2014-Nov-21 22:31N 27°55' W 082°26'2 1.7
2014-Nov-21 21:33N 27°54' W 082°26'8 8.0
2014-Nov-21 20:34N 27°47' W 082°31'1211.8
2014-Nov-21 19:33N 27°37' W 082°39'1111.1
2014-Nov-21 18:33N 27°36' W 082°51'6 5.5
2014-Nov-21 17:33N 27°39' W 082°57'2 2.2
2014-Nov-21 16:33N 27°37' W 082°59'5 5.0
2014-Nov-21 15:33N 27°33' W 083°02'1212.1
2014-Nov-21 14:33N 27°21' W 083°03'201 6.7
2014-Nov-20 08:33N 25°43' W 079°46'1211.8
2014-Nov-20 07:33N 25°55' W 079°45'1211.9
2014-Nov-20 06:33N 26°06' W 079°43'1212.0
2014-Nov-20 05:33N 26°18' W 079°42'1211.8
2014-Nov-20 04:33N 26°30' W 079°41'1211.7
2014-Nov-20 03:32N 26°42' W 079°40'33111.0
2014-Nov-18 21:33N 32°05' W 081°05'2 1.2
2014-Nov-18 20:13N 32°06' W 081°06'0 0.0
2014-Nov-18 19:31N 32°06' W 081°06'0 0.0
2014-Nov-18 18:32N 32°06' W 081°06'0 0.0
2014-Nov-18 17:31N 32°06' W 081°06'0 0.0
2014-Nov-18 16:28N 32°06' W 081°06'0 0.0
2014-Nov-18 15:32N 32°06' W 081°06'0 0.0
2014-Nov-18 14:32N 32°06' W 081°06'0 0.0
2014-Nov-18 13:32N 32°06' W 081°06'0 0.0
2014-Nov-18 12:32N 32°06' W 081°06'0 0.0
2014-Nov-18 11:31N 32°06' W 081°06'0 0.0
2014-Nov-18 10:28N 32°06' W 081°06'0 0.0
2014-Nov-18 09:31N 32°06' W 081°06'0 0.0
2014-Nov-18 08:29N 32°06' W 081°06'0 0.0
2014-Nov-18 07:31N 32°06' W 081°06'0 0.0
2014-Nov-18 06:32N 32°06' W 081°06'0 0.0
2014-Nov-18 05:32N 32°06' W 081°06'0 0.0
2014-Nov-18 04:32N 32°06' W 081°06'0 0.0
2014-Nov-18 03:31N 32°06' W 081°06'0 0.0
2014-Nov-18 02:32N 32°06' W 081°06'0 0.0
2014-Nov-18 01:32N 32°06' W 081°06'0 0.0
2014-Nov-18 00:31N 32°06' W 081°06'0 0.0
2014-Nov-17 23:32N 32°06' W 081°06'0 0.0
2014-Nov-17 22:28N 32°06' W 081°06'0 0.0
2014-Nov-17 21:32N 32°06' W 081°06'0 0.0
2014-Nov-17 20:32N 32°06' W 081°06'0 0.0
2014-Nov-17 19:04N 32°06' W 081°06'0 0.0
2014-Nov-17 18:31N 32°06' W 081°06'0 0.0
2014-Nov-17 17:31N 32°06' W 081°06'0 0.0
2014-Nov-17 16:28N 32°06' W 081°06'0 0.0
2014-Nov-17 15:31N 32°06' W 081°06'0 0.0
2014-Nov-17 14:32N 32°06' W 081°06'0 0.0
2014-Nov-17 13:32N 32°06' W 081°06'0 0.0
2014-Nov-17 12:29N 32°06' W 081°06'2 2.4
2014-Nov-17 11:34N 32°05' W 081°04'  

Dump ship's entire track history